Bellville, South Africa
Current Conditions -  °F | °C
As of 12:00 PM on Saturday 25 Oct 2014 (Local Time) from FACT Reporting Station
Few Clouds Few Clouds  
Wind Chill: 81°   Ceiling: Unl
Heat Index: 81°   Visibility: 6mi
Dew Point: 54°   Wind: 13mph
Humidity: 39%   Direction: 130°SE
Pressure: 30.03"   Gusts: NA
Location:  33.88°S, 18.6°E
Report Text: FACT 251000Z 13011KT 100V160 9999 FEW030 27/12 Q1017 NOSIG
Loading
Personal Weather Stations






























Interactive Weather Map
Tropical Storm Tracking
New forecast layout! Learn more

10-Day Weather Forecast

Advertisements
Track Severe Weather on mobile